Time;durP1;ratioP1;P1;durP2;ratioP2;P2;SDS_P1;SDS_P2;PMS_P1;PMS_P2;Temp;Humidity;BMP_temperature;BMP_pressure;BME280_temperature;BME280_humidity;BME280_pressure;Samples;Min_cycle;Max_cycle;Signal;HPM_P1;HPM_P2
2022/12/12 00:00:21;;;;;;;22.30;11.23;;;;;;;-142.75;100.00;78243.84;4986138;28;20179;-66
2022/12/12 00:02:46;;;;;;;19.17;10.45;;;;;;;-142.75;100.00;78251.72;4991456;28;20310;-65
2022/12/12 00:05:14;;;;;;;25.00;11.18;;;;;;;-142.75;100.00;78243.84;4987640;28;20071;-66
2022/12/12 00:07:57;;;;;;;21.33;11.27;;;;;;;-142.75;100.00;78259.59;4999072;28;20630;-66
2022/12/12 00:10:23;;;;;;;20.23;10.37;;;;;;;-142.75;100.00;78259.59;4979942;28;20055;-66
2022/12/12 00:12:48;;;;;;;21.98;9.95;;;;;;;-142.75;100.00;78267.47;4990405;28;20200;-66
2022/12/12 00:15:14;;;;;;;23.52;11.55;;;;;;;-142.75;100.00;78271.41;4985856;28;20013;-65
2022/12/12 00:17:39;;;;;;;24.35;11.68;;;;;;;-142.75;100.00;78275.34;4989833;28;20029;-66
2022/12/12 00:20:05;;;;;;;24.75;11.68;;;;;;;-142.75;100.00;78261.56;4991640;28;20247;-68
2022/12/12 00:22:31;;;;;;;21.55;11.02;;;;;;;-142.75;100.00;78257.63;4988569;28;20225;-68
2022/12/12 00:24:56;;;;;;;19.17;10.57;;;;;;;-142.75;100.00;78253.69;4993043;28;20322;-68
2022/12/12 00:27:22;;;;;;;21.00;10.50;;;;;;;-142.75;100.00;78273.38;4996186;28;20356;-65
2022/12/12 00:29:53;;;;;;;22.60;10.70;;;;;;;-142.75;100.00;78271.41;4996240;28;20313;-68
2022/12/12 00:32:20;;;;;;;22.67;11.77;;;;;;;-142.75;100.00;78263.53;4993603;28;20033;-68
2022/12/12 00:34:45;;;;;;;;;;;;;;;-142.75;100.00;78273.38;4994607;28;20662;-68
2022/12/12 00:37:11;;;;;;;19.50;10.10;;;;;;;-142.75;100.00;78275.34;4989663;28;19916;-69
2022/12/12 00:39:37;;;;;;;24.10;11.82;;;;;;;-142.75;100.00;78287.16;4990516;28;20041;-67
2022/12/12 00:42:02;;;;;;;26.70;10.52;;;;;;;-142.75;100.00;78295.06;4998634;28;20024;-68
2022/12/12 00:44:28;;;;;;;22.95;11.15;;;;;;;-142.75;100.00;78314.75;4994119;28;20028;-68
2022/12/12 00:46:53;;;;;;;21.73;11.55;;;;;;;-142.75;100.00;78326.56;4992657;28;20487;-68
2022/12/12 00:49:19;;;;;;;22.75;11.77;;;;;;;-142.75;100.00;78312.78;4984046;28;20365;-68
2022/12/12 00:51:45;;;;;;;20.17;10.77;;;;;;;-142.75;100.00;78328.53;4994362;28;20333;-68
2022/12/12 00:54:10;;;;;;;21.67;10.32;;;;;;;-142.75;100.00;78342.31;4986298;28;20338;-68
2022/12/12 00:56:36;;;;;;;18.20;10.57;;;;;;;-142.75;100.00;78346.25;4987670;28;20305;-68
2022/12/12 00:59:03;;;;;;;22.33;10.95;;;;;;;-142.75;100.00;78354.13;4993802;28;20415;-68
2022/12/12 01:01:30;;;;;;;23.77;11.33;;;;;;;-142.75;100.00;78365.94;4986699;28;20051;-68
2022/12/12 01:03:56;;;;;;;23.00;11.30;;;;;;;-142.75;100.00;78367.91;4984956;28;20120;-68
2022/12/12 01:06:22;;;;;;;30.40;12.68;;;;;;;-142.75;100.00;78369.88;4988252;28;20195;-68
2022/12/12 01:08:48;;;;;;;21.40;11.93;;;;;;;-142.75;100.00;78383.66;4989690;28;20546;-68
2022/12/12 01:11:14;;;;;;;22.08;12.27;;;;;;;-142.75;100.00;78393.50;4991643;28;20059;-68
2022/12/12 01:13:47;;;;;;;22.77;11.17;;;;;;;-142.75;100.00;78383.66;4988310;28;20759;-67
2022/12/12 01:16:14;;;;;;;24.77;12.23;;;;;;;-142.75;100.00;78403.38;4994392;28;20036;-68
2022/12/12 01:18:39;;;;;;;;;;;;;;;-142.75;100.00;78403.38;4995297;28;20048;-68
2022/12/12 01:21:12;;;;;;;24.57;12.20;;;;;;;-142.75;100.00;78409.28;4990966;28;20276;-68
2022/12/12 01:23:37;;;;;;;24.00;11.80;;;;;;;-142.75;100.00;78413.22;4994745;28;20590;-67
2022/12/12 01:26:12;;;;;;;22.30;11.40;;;;;;;-142.75;100.00;78411.25;5002803;28;20020;-68
2022/12/12 01:28:37;;;;;;;24.33;11.93;;;;;;;-142.75;100.00;78434.88;4991589;28;20114;-67
2022/12/12 01:31:04;;;;;;;29.02;13.15;;;;;;;-142.75;100.00;78436.84;4998667;28;20410;-67
2022/12/12 01:33:29;;;;;;;21.75;11.15;;;;;;;-142.75;100.00;78448.66;4995844;28;20021;-66
2022/12/12 01:35:55;;;;;;;27.15;12.40;;;;;;;-142.75;100.00;78442.75;5003452;28;20318;-65
2022/12/12 01:38:23;;;;;;;23.52;11.55;;;;;;;-142.75;100.00;78452.59;4994427;28;20081;-66
2022/12/12 01:40:50;;;;;;;20.83;10.70;;;;;;;-142.75;100.00;78464.41;4989908;28;20029;-66
2022/12/12 01:43:17;;;;;;;21.90;10.73;;;;;;;-142.75;100.00;78466.38;4991276;28;20021;-66
2022/12/12 01:45:58;;;;;;;29.07;12.50;;;;;;;-142.75;100.00;78468.34;5000661;28;20040;-67
2022/12/12 01:48:32;;;;;;;25.20;12.27;;;;;;;-142.75;100.00;78466.38;4998493;28;20024;-66
2022/12/12 01:51:01;;;;;;;22.23;11.80;;;;;;;-142.75;100.00;78472.28;4988312;28;20028;-66
2022/12/12 01:53:30;;;;;;;22.37;12.20;;;;;;;-142.75;100.00;78480.16;4995329;28;20047;-67
2022/12/12 01:55:57;;;;;;;22.70;11.97;;;;;;;-142.75;100.00;78482.13;4990149;28;20314;-67
2022/12/12 01:58:24;;;;;;;28.47;13.30;;;;;;;-142.75;100.00;78484.09;4994455;28;20032;-66
2022/12/12 02:00:50;;;;;;;25.67;12.23;;;;;;;-142.75;100.00;78488.03;4989233;28;20607;-66
2022/12/12 02:03:16;;;;;;;27.30;13.45;;;;;;;-142.75;100.00;78484.09;4994036;28;20025;-66
2022/12/12 02:05:48;;;;;;;28.10;13.00;;;;;;;-142.75;100.00;78497.91;5000288;28;20484;-66
2022/12/12 02:08:16;;;;;;;28.40;12.20;;;;;;;-142.75;100.00;78503.81;4995929;28;20024;-66
2022/12/12 02:10:43;;;;;;;32.10;14.27;;;;;;;-142.75;100.00;78507.75;4987677;28;20110;-66
2022/12/12 02:13:12;;;;;;;25.63;12.57;;;;;;;-142.75;100.00;78527.44;4992809;28;20051;-66
2022/12/12 02:15:45;;;;;;;26.63;12.67;;;;;;;-142.75;100.00;78523.50;4983508;28;20151;-66
2022/12/12 02:18:30;;;;;;;25.77;13.53;;;;;;;-142.75;100.00;78539.25;4996321;28;20059;-66
2022/12/12 02:21:12;;;;;;;22.50;12.10;;;;;;;-142.75;100.00;78558.94;4986497;28;20021;-67
2022/12/12 02:23:50;;;;;;;29.23;12.97;;;;;;;-142.75;100.00;78556.97;4995201;28;20032;-67
2022/12/12 02:26:40;;;;;;;22.93;12.10;;;;;;;-142.75;100.00;78555.00;4977695;28;20139;-66
2022/12/12 02:29:40;;;;;;;26.13;11.97;;;;;;;-142.75;100.00;78553.03;4994589;28;20550;-66
2022/12/12 02:32:22;;;;;;;27.37;12.37;;;;;;;-142.75;100.00;78566.81;4996757;28;20090;-67
2022/12/12 02:35:06;;;;;;;26.97;12.30;;;;;;;-142.75;100.00;78555.00;4991773;28;20028;-67
2022/12/12 02:37:56;;;;;;;25.77;12.43;;;;;;;-142.75;100.00;78549.09;4986689;28;20025;-67
2022/12/12 02:40:53;;;;;;;25.27;12.57;;;;;;;-142.75;100.00;78527.44;4991629;28;20628;-67
2022/12/12 02:43:30;;;;;;;22.77;10.35;;;;;;;-142.75;100.00;78511.69;4987111;28;20136;-67
2022/12/12 02:46:02;;;;;;;;;;;;;;;-142.75;100.00;78511.69;4988719;28;20139;-67
2022/12/12 02:48:49;;;;;;;26.93;12.13;;;;;;;-142.75;100.00;78513.66;4990622;28;20433;-67
2022/12/12 02:51:17;;;;;;;27.88;12.90;;;;;;;-142.75;100.00;78503.81;4990567;28;20558;-67
2022/12/12 02:53:42;;;;;;;26.43;12.53;;;;;;;-142.75;100.00;78511.69;4999470;28;20567;-66
2022/12/12 02:56:40;;;;;;;33.63;14.40;;;;;;;-142.75;100.00;78495.94;5000090;28;20028;-67
2022/12/12 02:59:06;;;;;;;26.48;12.75;;;;;;;-142.75;100.00;78513.66;5002650;28;20557;-65
2022/12/12 03:01:46;;;;;;;27.33;13.90;;;;;;;-142.75;100.00;78521.53;4986204;28;20055;-66
2022/12/12 03:10:22;;;;;;;28.10;13.50;;;;;;;-142.75;100.00;78543.19;4994082;28;20584;-66
2022/12/12 03:12:50;;;;;;;;;;;;;;;-142.75;100.00;78543.19;4992978;28;20101;-66
2022/12/12 03:15:35;;;;;;;30.43;12.90;;;;;;;-142.75;100.00;78551.06;4993437;28;20452;-66
2022/12/12 03:18:18;;;;;;;34.00;12.70;;;;;;;-142.75;100.00;78562.88;4991610;28;20541;-66
2022/12/12 03:20:53;;;;;;;27.93;13.50;;;;;;;-142.75;100.00;78549.09;4995255;28;20051;-67
2022/12/12 03:23:33;;;;;;;28.57;13.17;;;;;;;-142.75;100.00;78558.94;4991314;28;20130;-66
2022/12/12 03:26:08;;;;;;;27.30;13.33;;;;;;;-142.75;100.00;78566.81;4995016;28;20550;-64
2022/12/12 03:28:39;;;;;;;25.67;13.27;;;;;;;-142.75;100.00;78558.94;4999146;28;20114;-66
2022/12/12 03:31:08;;;;;;;33.03;14.57;;;;;;;-142.75;100.00;78562.88;4987997;28;20025;-66
2022/12/12 03:33:48;;;;;;;28.63;13.73;;;;;;;-142.75;100.00;78574.69;5000450;28;20020;-66
2022/12/12 03:36:17;;;;;;;30.63;13.63;;;;;;;-142.75;100.00;78580.59;4981707;28;20553;-65
2022/12/12 03:38:55;;;;;;;25.83;13.70;;;;;;;-142.75;100.00;78598.34;4989505;28;20029;-66
2022/12/12 03:41:29;;;;;;;29.57;12.93;;;;;;;-142.75;100.00;78594.41;4992444;28;20554;-67
2022/12/12 03:44:13;;;;;;;28.20;14.13;;;;;;;-142.75;100.00;78604.25;4998094;28;20025;-66
2022/12/12 03:46:48;;;;;;;31.33;13.17;;;;;;;-142.75;100.00;78606.22;4997434;28;20633;-66
2022/12/12 03:49:32;;;;;;;27.73;13.30;;;;;;;-142.75;100.00;78621.97;4992302;28;20540;-65
2022/12/12 03:52:12;;;;;;;31.27;14.27;;;;;;;-142.75;100.00;78620.00;4987679;28;20025;-65
2022/12/12 03:55:01;;;;;;;27.03;13.33;;;;;;;-142.75;100.00;78627.88;4991951;28;20114;-67
2022/12/12 03:57:38;;;;;;;25.43;12.43;;;;;;;-142.75;100.00;78627.88;4975557;28;20611;-66
2022/12/12 04:00:08;;;;;;;28.63;12.17;;;;;;;-142.75;100.00;78633.78;4992619;28;20579;-65
2022/12/12 04:02:52;;;;;;;28.97;13.97;;;;;;;-142.75;100.00;78625.91;5000049;28;20012;-66
2022/12/12 04:05:17;;;;;;;26.43;13.00;;;;;;;-142.75;100.00;78620.00;4988064;28;20028;-66
2022/12/12 04:07:50;;;;;;;30.77;14.40;;;;;;;-142.75;100.00;78616.06;4989634;28;20391;-66
2022/12/12 04:13:27;;;;;;;31.13;13.13;;;;;;;-142.75;100.00;78582.59;4991983;28;20537;-67
2022/12/12 04:16:01;;;;;;;31.10;12.90;;;;;;;-142.75;100.00;78574.69;4987846;28;20024;-66
2022/12/12 04:18:52;;;;;;;30.90;15.13;;;;;;;-142.75;100.00;78564.84;4995814;28;20035;-66
2022/12/12 04:24:47;;;;;;;28.27;13.17;;;;;;;-142.75;100.00;78549.09;4979077;28;20598;-65
2022/12/12 04:27:24;;;;;;;31.70;13.32;;;;;;;-142.75;100.00;78558.94;4994898;28;20062;-66
2022/12/12 04:29:59;;;;;;;27.00;12.77;;;;;;;-142.75;100.00;78596.38;4991000;28;20594;-66
2022/12/12 04:32:31;;;;;;;28.70;12.70;;;;;;;-142.75;100.00;78631.81;4999401;28;20147;-66
2022/12/12 04:35:23;;;;;;;24.10;11.37;;;;;;;-142.75;100.00;78621.97;4988368;28;20033;-67
2022/12/12 04:38:00;;;;;;;27.83;12.40;;;;;;;-142.75;100.00;78651.50;4984688;28;20060;-67
2022/12/12 04:40:36;;;;;;;27.77;12.60;;;;;;;-142.75;100.00;78631.81;4986241;28;20029;-68
2022/12/12 04:43:26;;;;;;;29.88;12.85;;;;;;;-142.75;100.00;78600.31;4992560;28;20118;-67
2022/12/12 04:45:57;;;;;;;31.40;13.33;;;;;;;-142.75;100.00;78582.59;4991537;28;20557;-66
2022/12/12 04:48:45;;;;;;;25.47;12.40;;;;;;;-142.75;100.00;78576.66;4983963;28;20037;-66
2022/12/12 04:51:15;;;;;;;22.43;12.37;;;;;;;-142.75;100.00;78580.59;4981480;28;20554;-65
2022/12/12 04:53:47;;;;;;;26.83;13.33;;;;;;;-142.75;100.00;78588.50;4983893;28;20114;-66
2022/12/12 04:56:16;;;;;;;30.10;15.03;;;;;;;-142.75;100.00;78572.72;4992692;28;20095;-65
2022/12/12 04:58:42;;;;;;;29.20;13.30;;;;;;;-142.75;100.00;78576.66;4996623;28;20029;-66
2022/12/12 05:01:15;;;;;;;29.90;13.20;;;;;;;-142.75;100.00;78586.53;4998092;28;20302;-65
2022/12/12 05:03:49;;;;;;;31.50;14.60;;;;;;;-142.75;100.00;78576.66;4997332;28;20040;-66
2022/12/12 05:06:21;;;;;;;70.90;31.20;;;;;;;-142.75;100.00;78572.72;4997169;28;20021;-65
2022/12/12 05:08:52;;;;;;;29.70;14.50;;;;;;;-142.75;100.00;78582.59;4997651;28;20541;-65
2022/12/12 05:11:20;;;;;;;34.13;13.30;;;;;;;-142.75;100.00;78610.16;4993233;28;20029;-66
2022/12/12 05:13:48;;;;;;;30.07;12.93;;;;;;;-142.75;100.00;78582.59;4996330;28;20243;-66
2022/12/12 05:16:25;;;;;;;26.23;13.03;;;;;;;-142.75;100.00;78590.47;4995056;28;20592;-66
2022/12/12 05:18:51;;;;;;;26.87;14.03;;;;;;;-142.75;100.00;78604.25;4989406;28;20044;-66
2022/12/12 05:21:16;;;;;;;27.17;13.07;;;;;;;-142.75;100.00;78618.03;4994856;28;20294;-66
2022/12/12 05:23:42;;;;;;;27.90;13.23;;;;;;;-142.75;100.00;78612.13;5001722;28;20472;-66
2022/12/12 05:26:14;;;;;;;24.45;12.60;;;;;;;-142.75;100.00;78598.34;4992196;28;20313;-66
2022/12/12 05:28:39;;;;;;;39.43;18.13;;;;;;;-142.75;100.00;78614.09;4975529;28;20029;-66
2022/12/12 05:31:05;;;;;;;29.35;13.75;;;;;;;-142.75;100.00;78623.94;5004391;28;20470;-66
2022/12/12 05:33:31;;;;;;;31.23;14.25;;;;;;;-142.75;100.00;78637.72;4998112;28;20328;-66
2022/12/12 05:35:57;;;;;;;28.63;14.07;;;;;;;-142.75;100.00;78645.59;5004412;28;20158;-65
2022/12/12 05:38:22;;;;;;;29.60;13.90;;;;;;;-142.75;100.00;78659.38;4994481;28;20377;-65
2022/12/12 05:40:48;;;;;;;31.20;14.77;;;;;;;-142.75;100.00;78657.41;5000251;28;20344;-66
2022/12/12 05:43:13;;;;;;;36.17;14.50;;;;;;;-142.75;100.00;78667.25;4986211;28;20459;-66
2022/12/12 05:45:39;;;;;;;32.20;14.40;;;;;;;-142.75;100.00;78661.34;4993876;28;20338;-65
2022/12/12 05:48:05;;;;;;;28.35;14.40;;;;;;;-142.75;100.00;78665.28;4993893;28;20036;-65
2022/12/12 05:50:30;;;;;;;29.30;12.88;;;;;;;-142.75;100.00;78685.00;4995103;28;20481;-64
2022/12/12 05:52:56;;;;;;;23.35;11.70;;;;;;;-142.75;100.00;78700.75;4988195;28;20037;-65
2022/12/12 05:55:21;;;;;;;27.20;13.30;;;;;;;-142.75;100.00;78710.59;4995459;28;20086;-64
2022/12/12 05:57:47;;;;;;;35.85;16.35;;;;;;;-142.75;100.00;78708.63;5007489;28;20397;-65
2022/12/12 06:00:12;;;;;;;32.88;13.98;;;;;;;-142.75;100.00;78710.59;5002779;28;20036;-65
2022/12/12 06:02:38;;;;;;;32.03;13.55;;;;;;;-142.75;100.00;78710.59;4999768;28;20368;-65
2022/12/12 06:05:04;;;;;;;30.00;12.30;;;;;;;-142.75;100.00;78714.53;4993791;28;20059;-65
2022/12/12 06:07:29;;;;;;;26.20;12.63;;;;;;;-142.75;100.00;78716.50;4989063;28;20467;-66
2022/12/12 06:09:55;;;;;;;31.88;13.07;;;;;;;-142.75;100.00;78728.31;4988657;28;20471;-66
2022/12/12 06:12:21;;;;;;;32.38;13.02;;;;;;;-142.75;100.00;78736.19;4993538;28;20202;-67
2022/12/12 06:14:47;;;;;;;30.03;13.00;;;;;;;-142.75;100.00;78738.16;4982461;28;20020;-65
2022/12/12 06:17:12;;;;;;;27.67;12.63;;;;;;;-142.75;100.00;78740.13;4996575;28;20151;-66
2022/12/12 06:19:38;;;;;;;28.25;11.40;;;;;;;-142.75;100.00;78744.09;4990755;28;20314;-66
2022/12/12 06:22:03;;;;;;;27.92;11.48;;;;;;;-142.75;100.00;78736.19;4983881;28;20315;-66
2022/12/12 06:24:29;;;;;;;27.92;12.27;;;;;;;-142.75;100.00;78761.81;4996420;28;20267;-66
2022/12/12 06:26:54;;;;;;;28.23;13.05;;;;;;;-142.75;100.00;78740.13;4987675;28;20399;-65
2022/12/12 06:29:20;;;;;;;26.48;12.50;;;;;;;-142.75;100.00;78759.84;4986539;28;20029;-65
2022/12/12 06:31:46;;;;;;;30.20;13.40;;;;;;;-142.75;100.00;78763.78;4990249;28;20400;-65
2022/12/12 06:34:11;;;;;;;24.42;11.95;;;;;;;-142.75;100.00;78751.97;4982852;28;20326;-66
2022/12/12 06:36:37;;;;;;;26.30;11.18;;;;;;;-142.75;100.00;78751.97;4991502;28;20368;-66
2022/12/12 06:39:03;;;;;;;21.55;11.68;;;;;;;-142.75;100.00;78750.00;4994879;28;20494;-67
2022/12/12 06:41:29;;;;;;;28.13;14.13;;;;;;;-142.75;100.00;78746.03;4993317;28;20241;-68
2022/12/12 06:43:56;;;;;;;33.40;14.67;;;;;;;-142.75;100.00;78740.13;4994814;28;20143;-67
2022/12/12 06:46:22;;;;;;;;;;;;;;;-142.75;100.00;78740.13;4991028;28;20033;-67
2022/12/12 06:48:48;;;;;;;21.50;9.27;;;;;;;-142.75;100.00;78748.03;4998397;28;19959;-67
2022/12/12 06:51:17;;;;;;;26.60;11.67;;;;;;;-142.75;100.00;78740.13;4981504;28;20167;-67
2022/12/12 06:53:43;;;;;;;24.97;12.73;;;;;;;-142.75;100.00;78744.09;4983441;28;20056;-69
2022/12/12 06:56:13;;;;;;;27.67;11.65;;;;;;;-142.75;100.00;78748.03;4988335;28;20186;-65
2022/12/12 06:58:39;;;;;;;29.40;13.30;;;;;;;-142.75;100.00;78771.66;4988925;28;20061;-67
2022/12/12 07:01:06;;;;;;;25.20;10.93;;;;;;;-142.75;100.00;78751.97;5003107;28;20384;-67
2022/12/12 07:03:32;;;;;;;26.60;11.90;;;;;;;-142.75;100.00;78765.75;4998420;28;20583;-66
2022/12/12 07:05:58;;;;;;;;;;;;;;;-142.75;100.00;78759.84;4988635;28;20025;-66
2022/12/12 07:08:23;;;;;;;27.13;12.93;;;;;;;-142.75;100.00;78763.78;4989658;28;20344;-65
2022/12/12 07:10:49;;;;;;;29.38;11.88;;;;;;;-142.75;100.00;78755.91;4990092;28;20380;-66
2022/12/12 07:13:15;;;;;;;23.33;11.43;;;;;;;-142.75;100.00;78751.97;4969024;28;20378;-67
2022/12/12 07:15:42;;;;;;;25.25;11.98;;;;;;;-142.75;100.00;78755.91;4983050;28;20330;-68
2022/12/12 07:18:07;;;;;;;22.27;11.50;;;;;;;-142.75;100.00;78755.91;4990633;28;20642;-66
2022/12/12 07:20:33;;;;;;;23.30;10.38;;;;;;;-142.75;100.00;78775.59;5003115;28;20123;-70
2022/12/12 07:22:58;;;;;;;25.15;12.30;;;;;;;-142.75;100.00;78771.66;4982294;28;20396;-66
2022/12/12 07:25:24;;;;;;;24.88;11.18;;;;;;;-142.75;100.00;78751.97;5003819;28;20420;-65
2022/12/12 07:27:49;;;;;;;26.80;12.85;;;;;;;-142.75;100.00;78732.25;5000911;28;20047;-66
2022/12/12 07:30:15;;;;;;;23.45;13.02;;;;;;;-142.75;100.00;78744.09;4990870;28;20372;-66
2022/12/12 07:32:40;;;;;;;22.13;11.07;;;;;;;-142.75;100.00;78742.09;4994332;28;20056;-66
2022/12/12 07:35:06;;;;;;;29.85;11.60;;;;;;;-142.75;100.00;78740.13;5000798;28;20024;-67
2022/12/12 07:37:32;;;;;;;29.02;12.20;;;;;;;-142.75;100.00;78751.97;4997194;28;20330;-66
2022/12/12 07:39:57;;;;;;;28.33;12.60;;;;;;;-142.75;100.00;78748.03;5002579;28;20387;-66
2022/12/12 07:42:23;;;;;;;28.67;12.80;;;;;;;-142.75;100.00;78771.66;4999656;28;20167;-69
2022/12/12 07:44:49;;;;;;;29.00;12.20;;;;;;;-142.75;100.00;78759.84;5003209;28;20349;-68
2022/12/12 07:47:14;;;;;;;25.20;11.53;;;;;;;-142.75;100.00;78757.88;4999581;28;20025;-67
2022/12/12 07:49:40;;;;;;;25.55;11.02;;;;;;;-142.75;100.00;78771.66;4998568;28;20471;-67
2022/12/12 07:52:06;;;;;;;26.88;11.98;;;;;;;-142.75;100.00;78787.41;4989059;28;20325;-67
2022/12/12 07:54:31;;;;;;;25.92;13.00;;;;;;;-142.75;100.00;78799.22;4983785;28;20372;-67
2022/12/12 07:56:59;;;;;;;23.90;11.95;;;;;;;-142.75;100.00;78799.22;4998174;28;20020;-65
2022/12/12 07:59:24;;;;;;;26.23;11.37;;;;;;;-142.75;100.00;78803.16;4987998;28;20561;-64
2022/12/12 08:01:50;;;;;;;28.15;11.98;;;;;;;-142.75;100.00;78809.06;4989404;28;20052;-68
2022/12/12 08:04:15;;;;;;;26.13;11.73;;;;;;;-142.75;100.00;78814.97;4991819;28;20303;-67
2022/12/12 08:06:41;;;;;;;28.50;11.88;;;;;;;-142.75;100.00;78814.97;4993195;28;20034;-65
2022/12/12 08:09:06;;;;;;;22.45;12.38;;;;;;;-142.75;100.00;78803.16;4996907;28;20094;-66
2022/12/12 08:11:32;;;;;;;30.20;13.18;;;;;;;-142.75;100.00;78783.47;5001163;28;20356;-65
2022/12/12 08:13:57;;;;;;;24.83;12.45;;;;;;;-142.75;100.00;78763.78;4994352;28;20028;-66
2022/12/12 08:16:26;;;;;;;27.27;12.18;;;;;;;-142.75;100.00;78720.44;5001915;28;20353;-66
2022/12/12 08:18:56;;;;;;;26.97;12.10;;;;;;;-142.75;100.00;78716.50;4993955;28;20025;-66
2022/12/12 08:21:23;;;;;;;25.10;11.10;;;;;;;-142.75;100.00;78688.94;4994283;28;20562;-65
2022/12/12 08:23:49;;;;;;;24.23;11.40;;;;;;;-142.75;100.00;78657.41;4984405;28;20798;-64
2022/12/12 08:26:16;;;;;;;30.88;12.55;;;;;;;-142.75;100.00;78620.00;4995796;28;20029;-66
2022/12/12 08:28:48;;;;;;;23.70;11.20;;;;;;;-142.75;100.00;78592.44;4996804;28;20025;-66
2022/12/12 08:31:15;;;;;;;21.97;11.27;;;;;;;-142.75;100.00;78547.13;4995552;28;20048;-66
2022/12/12 08:33:41;;;;;;;24.53;11.40;;;;;;;-142.75;100.00;78525.47;4998928;28;20028;-66
2022/12/12 08:36:12;;;;;;;24.05;11.27;;;;;;;-142.75;100.00;78464.41;4989833;28;20465;-65
2022/12/12 08:38:37;;;;;;;26.43;11.43;;;;;;;-142.75;100.00;78428.97;4990186;28;20553;-66
2022/12/12 08:41:03;;;;;;;27.00;11.35;;;;;;;-142.75;100.00;78369.88;4989572;28;20040;-66
2022/12/12 08:43:28;;;;;;;26.15;11.95;;;;;;;-142.75;100.00;78312.78;4981828;28;20333;-66
2022/12/12 08:46:01;;;;;;;26.30;12.38;;;;;;;-142.75;100.00;78259.59;4987561;28;20435;-66
2022/12/12 08:48:28;;;;;;;28.03;12.77;;;;;;;-142.75;100.00;78291.09;4988303;28;20783;-66
2022/12/12 08:50:53;;;;;;;26.63;12.87;;;;;;;-142.75;100.00;78257.63;4985209;28;20029;-66
2022/12/12 08:53:19;;;;;;;23.75;11.55;;;;;;;-142.75;100.00;78255.66;4996259;28;20404;-65
2022/12/12 08:55:44;;;;;;;22.35;11.63;;;;;;;-142.75;100.00;78287.16;4987753;28;20194;-67
2022/12/12 08:58:10;;;;;;;28.15;12.13;;;;;;;-142.75;100.00;78312.78;4991734;28;20301;-66
2022/12/12 09:00:36;;;;;;;32.65;13.52;;;;;;;-142.75;100.00;78281.25;5000127;28;20039;-66
2022/12/12 09:03:01;;;;;;;24.33;12.20;;;;;;;-142.75;100.00;78255.66;4987700;28;20558;-66
2022/12/12 09:05:27;;;;;;;26.85;12.75;;;;;;;-142.75;100.00;78243.84;4998745;28;20032;-66
2022/12/12 09:07:52;;;;;;;31.58;11.73;;;;;;;-142.75;100.00;78251.72;4984457;28;20346;-66
2022/12/12 09:10:18;;;;;;;24.23;11.02;;;;;;;-142.75;100.00;78210.38;4985313;28;20453;-66
2022/12/12 09:12:44;;;;;;;31.55;17.23;;;;;;;-142.75;100.00;78192.66;4997652;28;20193;-67
2022/12/12 09:15:09;;;;;;;28.67;12.57;;;;;;;-142.75;100.00;78206.44;4998333;28;20233;-65
2022/12/12 09:17:35;;;;;;;28.45;13.82;;;;;;;-142.75;100.00;78247.78;4991741;28;20039;-66
2022/12/12 09:20:00;;;;;;;29.35;13.50;;;;;;;-142.75;100.00;78261.56;5001064;28;20395;-66
2022/12/12 09:22:26;;;;;;;24.88;13.18;;;;;;;-142.75;100.00;78239.91;4987769;28;20327;-65
2022/12/12 09:24:51;;;;;;;26.58;13.80;;;;;;;-142.75;100.00;78182.81;5000122;28;20052;-68
2022/12/12 09:27:17;;;;;;;20.00;10.68;;;;;;;-142.75;100.00;78165.06;4988087;28;20037;-64
2022/12/12 09:29:43;;;;;;;26.67;12.50;;;;;;;-142.75;100.00;78184.78;4998027;28;20064;-66
2022/12/12 09:32:11;;;;;;;25.33;12.07;;;;;;;-142.75;100.00;78102.06;4991974;28;20306;-66
2022/12/12 09:34:38;;;;;;;23.80;11.97;;;;;;;-142.75;100.00;78145.38;4984181;28;20032;-65
2022/12/12 09:37:04;;;;;;;26.70;12.97;;;;;;;-142.75;100.00;78054.81;4982882;28;20033;-65
2022/12/12 09:39:30;;;;;;;27.00;11.70;;;;;;;-142.75;100.00;78009.50;4998503;28;20033;-66
2022/12/12 09:41:56;;;;;;;22.15;11.20;;;;;;;-142.75;100.00;77991.78;4982709;28;20286;-65
2022/12/12 09:44:24;;;;;;;26.58;12.35;;;;;;;-142.75;100.00;78019.34;4996062;28;20074;-66
2022/12/12 09:47:04;;;;;;;24.23;11.87;;;;;;;-142.75;100.00;77999.66;5002716;28;20529;-64
2022/12/12 09:49:46;;;;;;;22.13;10.67;;;;;;;-142.75;100.00;78001.63;5003101;28;20565;-65
2022/12/12 09:52:18;;;;;;;21.43;10.70;;;;;;;-142.75;100.00;78015.41;4989951;28;20052;-65
2022/12/12 09:54:44;;;;;;;25.70;11.43;;;;;;;-142.75;100.00;77987.84;4995098;28;20062;-65
2022/12/12 09:57:27;;;;;;;26.05;11.68;;;;;;;-142.75;100.00;77956.34;4997131;28;20332;-65
2022/12/12 10:00:12;;;;;;;24.47;11.83;;;;;;;-142.75;100.00;77948.47;4986576;28;20442;-65
2022/12/12 10:02:53;;;;;;;25.67;11.30;;;;;;;-142.75;100.00;77964.22;4988904;28;20128;-66
2022/12/12 10:05:25;;;;;;;26.27;12.07;;;;;;;-142.75;100.00;77960.28;4985240;28;20029;-65
2022/12/12 10:08:34;;;;;;;30.17;11.93;;;;;;;-142.75;100.00;77985.88;4993019;28;20055;-66
2022/12/12 10:11:48;;;;;;;;;;;;;;;-142.75;100.00;78039.03;4971063;28;20036;-65
2022/12/12 10:13:52;;;;;;;24.23;10.70;;;;;;;-142.75;100.00;78092.22;4990872;28;19913;-64
2022/12/12 10:16:17;;;;;;;25.17;12.15;;;;;;;-142.75;100.00;78084.34;5003407;28;20043;-65
2022/12/12 10:18:50;;;;;;;21.40;10.85;;;;;;;-142.75;100.00;78125.69;4989117;28;20077;-65
2022/12/12 10:21:25;;;;;;;25.70;12.57;;;;;;;-142.75;100.00;78159.16;4983748;28;20575;-65
2022/12/12 10:24:05;;;;;;;25.23;10.80;;;;;;;-142.75;100.00;78135.53;4992102;28;20021;-65
2022/12/12 10:26:30;;;;;;;24.23;11.20;;;;;;;-142.75;100.00;78088.28;4998937;28;20553;-65
2022/12/12 10:29:09;;;;;;;27.48;11.65;;;;;;;-142.75;100.00;78035.09;4999898;28;20085;-65
2022/12/12 10:31:55;;;;;;;22.97;11.00;;;;;;;-142.75;100.00;78021.31;4994326;28;20079;-66
2022/12/12 10:34:53;;;;;;;25.95;12.35;;;;;;;-142.75;100.00;78009.50;4996987;28;20057;-65
2022/12/12 10:37:40;;;;;;;27.00;13.15;;;;;;;-142.75;100.00;78056.78;4964296;28;20902;-64
2022/12/12 10:40:25;;;;;;;25.83;12.02;;;;;;;-142.75;100.00;77991.78;4967018;28;20043;-65
2022/12/12 10:43:01;;;;;;;25.03;12.37;;;;;;;-142.75;100.00;77948.47;4984506;28;20090;-65
2022/12/12 10:45:51;;;;;;;17.98;8.93;;;;;;;-142.75;100.00;77916.97;5005757;28;20051;-65
2022/12/12 10:48:17;;;;;;;23.73;11.37;;;;;;;-142.75;100.00;77889.38;4983240;28;20136;-65
2022/12/12 10:50:55;;;;;;;25.23;11.30;;;;;;;-142.75;100.00;77920.91;4983747;28;20361;-66
2022/12/12 10:53:22;;;;;;;23.57;12.33;;;;;;;-142.75;100.00;78023.28;4983761;28;20025;-65
2022/12/12 10:56:04;;;;;;;27.60;12.37;;;;;;;-142.75;100.00;77979.97;4982245;28;20064;-65
2022/12/12 10:58:50;;;;;;;20.90;11.93;;;;;;;-142.75;100.00;77911.06;4994161;28;20155;-65
2022/12/12 11:01:23;;;;;;;24.77;11.20;;;;;;;-142.75;100.00;77926.81;4988441;28;20043;-66
2022/12/12 11:03:52;;;;;;;27.47;12.70;;;;;;;-142.75;100.00;77936.66;4996006;28;20059;-65
2022/12/12 11:06:27;;;;;;;25.60;13.00;;;;;;;-142.75;100.00;77867.72;4991972;28;20550;-65
2022/12/12 11:08:56;;;;;;;25.20;11.27;;;;;;;-142.75;100.00;77826.38;4986570;28;20076;-65
2022/12/12 11:11:25;;;;;;;28.47;11.80;;;;;;;-142.75;100.00;77826.38;4987684;28;20028;-65
2022/12/12 11:13:58;;;;;;;22.50;11.43;;;;;;;-142.75;100.00;77800.78;5001121;28;20047;-65
2022/12/12 11:16:26;;;;;;;21.00;10.53;;;;;;;-142.75;100.00;77804.72;4992202;28;20051;-65
2022/12/12 11:19:04;;;;;;;21.80;10.43;;;;;;;-142.75;100.00;77820.47;4992633;28;20026;-65
2022/12/12 11:21:32;;;;;;;21.27;10.33;;;;;;;-142.75;99.14;77808.66;4989917;28;20024;-64
2022/12/12 11:23:59;;;;;;;24.03;12.33;;;;;;;-142.75;99.77;77830.31;4986361;28;20017;-65